createdAt,value
2019-02-17T00:02:27.191Z,47.40
2019-02-17T00:07:32.917Z,47.90
2019-02-17T00:12:37.541Z,47.30
2019-02-17T00:17:42.399Z,47.40
2019-02-17T00:22:47.605Z,47.30
2019-02-17T00:27:52.271Z,47.40
2019-02-17T00:32:57.546Z,47.40
2019-02-17T00:38:03.295Z,47.40
2019-02-17T00:43:07.490Z,47.70
2019-02-17T00:48:13.224Z,47.50
2019-02-17T00:53:18.379Z,47.50
2019-02-17T00:58:22.682Z,47.50
2019-02-17T01:03:26.840Z,47.50
2019-02-17T01:08:31.102Z,47.50
2019-02-17T01:13:37.050Z,47.50
2019-02-17T01:18:41.786Z,47.50
2019-02-17T01:23:46.082Z,47.50
2019-02-17T01:28:50.356Z,47.50
2019-02-17T01:33:54.715Z,47.60
2019-02-17T01:38:58.866Z,47.60
2019-02-17T01:44:04.241Z,47.70
2019-02-17T01:49:08.386Z,47.60
2019-02-17T01:54:12.658Z,47.70
2019-02-17T01:59:17.127Z,47.60
2019-02-17T02:04:21.982Z,47.60
2019-02-17T02:09:26.458Z,47.70
2019-02-17T02:14:32.139Z,47.60
2019-02-17T02:19:37.255Z,47.70
2019-02-17T02:24:41.769Z,47.80
2019-02-17T02:29:46.060Z,47.70
2019-02-17T02:34:50.377Z,47.70
2019-02-17T02:39:54.969Z,47.70
2019-02-17T02:44:59.295Z,47.70
2019-02-17T02:50:05.410Z,47.70
2019-02-17T02:55:11.127Z,47.80
2019-02-17T03:00:15.916Z,47.80
2019-02-17T03:05:21.853Z,47.80
2019-02-17T03:10:27.542Z,47.90
2019-02-17T03:15:31.826Z,47.80
2019-02-17T03:20:36.051Z,47.80
2019-02-17T03:25:40.518Z,47.80
2019-02-17T03:30:44.991Z,47.80
2019-02-17T03:35:49.732Z,47.80
2019-02-17T03:40:54.163Z,47.80
2019-02-17T03:45:58.278Z,47.90
2019-02-17T03:51:02.561Z,47.80
2019-02-17T03:56:07.107Z,47.80
2019-02-17T04:01:11.363Z,47.90
2019-02-17T04:06:15.749Z,47.90
2019-02-17T04:11:20.194Z,47.90
2019-02-17T04:16:25.131Z,47.90
2019-02-17T04:21:29.320Z,47.90
2019-02-17T04:26:33.621Z,47.90
2019-02-17T04:31:38.995Z,48.00
2019-02-17T04:36:43.441Z,47.90
2019-02-17T04:41:49.130Z,48.00
2019-02-17T04:46:53.589Z,48.00
2019-02-17T04:51:57.805Z,48.00
2019-02-17T04:57:01.954Z,48.00
2019-02-17T05:02:06.456Z,48.00
2019-02-17T05:07:11.415Z,47.90
2019-02-17T05:12:16.466Z,48.00
2019-02-17T05:17:20.637Z,48.00
2019-02-17T05:22:25.198Z,48.00
2019-02-17T05:27:29.386Z,48.00
2019-02-17T05:32:33.759Z,48.10
2019-02-17T05:37:38.427Z,48.00
2019-02-17T05:42:42.996Z,48.00
2019-02-17T05:47:47.163Z,48.10
2019-02-17T05:52:51.805Z,48.10
2019-02-17T05:57:56.059Z,48.10
2019-02-17T06:03:00.414Z,48.10
2019-02-17T06:08:05.201Z,48.10
2019-02-17T06:13:09.420Z,48.30
2019-02-17T06:18:13.670Z,48.20
2019-02-17T06:23:17.849Z,48.20
2019-02-17T06:28:22.758Z,48.30
2019-02-17T06:33:27.713Z,48.10
2019-02-17T06:38:31.861Z,48.20
2019-02-17T06:43:36.109Z,48.30
2019-02-17T06:48:40.436Z,48.20
2019-02-17T06:53:45.048Z,48.30
2019-02-17T06:58:49.253Z,48.20
2019-02-17T07:03:53.546Z,48.20
2019-02-17T07:08:58.101Z,48.30
2019-02-17T07:14:02.485Z,48.30
2019-02-17T07:19:07.054Z,48.30
2019-02-17T07:24:12.034Z,48.40
2019-02-17T07:29:16.939Z,48.40
2019-02-17T07:34:21.574Z,48.50
2019-02-17T07:39:26.123Z,48.50
2019-02-17T07:44:30.501Z,48.40
2019-02-17T07:49:37.273Z,48.50
2019-02-17T07:54:41.836Z,48.60
2019-02-17T07:59:46.230Z,48.60
2019-02-17T08:04:50.466Z,48.60
2019-02-17T08:09:54.729Z,48.60
2019-02-17T08:14:59.386Z,48.60
2019-02-17T08:20:06.373Z,48.70
2019-02-17T08:25:21.543Z,48.70
2019-02-17T08:30:18.824Z,48.70
2019-02-17T08:35:24.586Z,48.70
2019-02-17T08:40:30.438Z,48.60
2019-02-17T08:45:35.498Z,48.50
2019-02-17T08:50:39.670Z,48.60
2019-02-17T08:55:43.927Z,48.50
2019-02-17T09:00:48.493Z,48.40
2019-02-17T09:05:52.690Z,48.40
2019-02-17T09:10:56.852Z,48.40
2019-02-17T09:16:01.071Z,48.50
2019-02-17T09:21:05.758Z,48.50
2019-02-17T09:26:11.535Z,48.50
2019-02-17T09:31:16.060Z,48.50
2019-02-17T09:36:20.370Z,48.40
2019-02-17T09:41:26.082Z,48.40
2019-02-17T09:46:30.653Z,48.40
2019-02-17T09:51:34.915Z,48.30
2019-02-17T09:56:39.282Z,48.30
2019-02-17T10:01:43.628Z,48.20
2019-02-17T10:06:47.969Z,48.20
2019-02-17T10:11:52.306Z,48.10
2019-02-17T10:16:56.951Z,48.00
2019-02-17T10:22:01.250Z,48.00
2019-02-17T10:27:05.505Z,47.90
2019-02-17T10:32:11.275Z,47.90
2019-02-17T10:37:15.979Z,47.80
2019-02-17T10:42:21.738Z,47.80
2019-02-17T10:47:25.887Z,47.70
2019-02-17T10:52:30.137Z,47.70
2019-02-17T10:57:34.969Z,47.70
2019-02-17T11:02:46.765Z,47.60
2019-02-17T11:07:45.410Z,47.60
2019-02-17T11:12:49.578Z,47.50
2019-02-17T11:17:53.831Z,47.40
2019-02-17T11:22:58.114Z,47.40
2019-02-17T11:28:02.279Z,47.30
2019-02-17T11:33:07.903Z,47.30
2019-02-17T11:38:13.658Z,47.20
2019-02-17T11:43:19.361Z,47.10
2019-02-17T11:48:23.557Z,47.10
2019-02-17T11:53:27.822Z,47.00
2019-02-17T11:58:31.952Z,47.00
2019-02-17T12:03:36.257Z,46.90
2019-02-17T12:08:45.082Z,46.90
2019-02-17T12:13:49.348Z,46.80
2019-02-17T12:18:53.517Z,46.70
2019-02-17T12:23:58.182Z,46.60
2019-02-17T12:29:02.576Z,46.50
2019-02-17T12:34:06.742Z,46.50
2019-02-17T12:39:12.431Z,46.40
2019-02-17T12:44:18.142Z,46.40
2019-02-17T12:49:23.851Z,46.40
2019-02-17T12:54:29.379Z,46.30
2019-02-17T12:59:34.846Z,46.40
2019-02-17T13:04:39.214Z,46.10
2019-02-17T13:09:43.939Z,46.20
2019-02-17T13:14:48.531Z,46.00
2019-02-17T13:19:52.779Z,46.00
2019-02-17T13:24:56.953Z,45.90
2019-02-17T13:30:01.173Z,45.90
2019-02-17T13:35:05.655Z,45.80
2019-02-17T13:40:11.792Z,45.70
2019-02-17T13:45:16.747Z,45.60
2019-02-17T13:50:21.217Z,45.60
2019-02-17T13:55:26.090Z,45.50
2019-02-17T14:00:30.261Z,45.40
2019-02-17T14:05:35.791Z,45.40
2019-02-17T14:10:40.250Z,45.30
2019-02-17T14:15:45.043Z,45.30
2019-02-17T14:20:49.326Z,45.20
2019-02-17T14:25:53.674Z,45.20
2019-02-17T14:30:58.030Z,45.10
2019-02-17T14:36:02.370Z,45.00
2019-02-17T14:41:08.114Z,45.00
2019-02-17T14:46:13.182Z,44.90
2019-02-17T14:51:17.354Z,44.90
2019-02-17T14:56:21.519Z,44.80
2019-02-17T15:01:25.899Z,44.80
2019-02-17T15:06:30.869Z,44.70
2019-02-17T15:11:35.509Z,44.70
2019-02-17T15:16:39.686Z,44.60
2019-02-17T15:21:43.905Z,44.70
2019-02-17T15:26:48.281Z,44.80
2019-02-17T15:31:52.551Z,44.50
2019-02-17T15:36:56.779Z,44.40
2019-02-17T15:42:02.003Z,44.40
2019-02-17T15:47:07.722Z,44.30
2019-02-17T15:52:11.845Z,44.30
2019-02-17T15:57:16.701Z,44.30
2019-02-17T16:02:20.898Z,44.20
2019-02-17T16:07:25.686Z,44.10
2019-02-17T16:12:30.122Z,44.10
2019-02-17T16:17:34.395Z,44.00
2019-02-17T16:22:38.592Z,44.00
2019-02-17T16:27:42.754Z,43.90
2019-02-17T16:32:47.214Z,43.90
2019-02-17T16:37:52.358Z,43.80
2019-02-17T16:42:56.814Z,43.90
2019-02-17T16:48:01.082Z,43.80
2019-02-17T16:53:05.593Z,43.80
2019-02-17T16:58:10.602Z,43.80
2019-02-17T17:03:14.969Z,43.80
2019-02-17T17:08:19.260Z,43.80
2019-02-17T17:13:23.738Z,43.80
2019-02-17T17:18:28.030Z,43.80
2019-02-17T17:23:32.660Z,43.80
2019-02-17T17:28:37.365Z,43.80
2019-02-17T17:33:41.552Z,43.80
2019-02-17T17:38:45.846Z,43.80
2019-02-17T17:43:50.124Z,44.50
2019-02-17T17:48:54.415Z,43.80
2019-02-17T17:53:58.541Z,44.50
2019-02-17T17:59:02.764Z,43.80
2019-02-17T18:04:07.089Z,43.80
2019-02-17T18:09:11.374Z,43.90
2019-02-17T18:14:17.147Z,43.80
2019-02-17T18:19:21.403Z,43.80
2019-02-17T18:24:26.790Z,43.90
2019-02-17T18:29:31.579Z,43.90
2019-02-17T18:34:35.794Z,43.90
2019-02-17T18:39:40.057Z,43.90
2019-02-17T18:44:44.419Z,43.80
2019-02-17T18:49:48.565Z,43.90
2019-02-17T18:54:52.683Z,44.00
2019-02-17T18:59:56.865Z,44.00
2019-02-17T19:05:01.143Z,44.00
2019-02-17T19:10:08.579Z,44.10
2019-02-17T19:15:14.010Z,44.00
2019-02-17T19:20:20.018Z,44.10
2019-02-17T19:25:25.685Z,44.10
2019-02-17T19:30:30.293Z,44.20
2019-02-17T19:35:41.449Z,44.20
2019-02-17T19:40:49.453Z,44.30
2019-02-17T19:45:53.786Z,44.60
2019-02-17T19:50:58.051Z,44.40
2019-02-17T19:56:02.492Z,44.40
2019-02-17T20:01:07.015Z,44.40
2019-02-17T20:06:11.578Z,44.40
2019-02-17T20:11:16.043Z,44.50
2019-02-17T20:16:21.171Z,44.50
2019-02-17T20:21:25.850Z,44.50
2019-02-17T20:26:30.002Z,44.50
2019-02-17T20:31:34.358Z,44.50
2019-02-17T20:36:38.721Z,44.50
2019-02-17T20:41:43.221Z,44.50
2019-02-17T20:46:47.470Z,44.50
2019-02-17T20:51:51.658Z,44.50
2019-02-17T20:56:56.327Z,44.50
2019-02-17T21:02:00.452Z,44.60
2019-02-17T21:07:04.961Z,44.60
2019-02-17T21:12:10.737Z,44.60
2019-02-17T21:17:15.603Z,44.70
2019-02-17T21:22:19.812Z,44.70
2019-02-17T21:27:24.094Z,44.70
2019-02-17T21:32:28.351Z,44.80
2019-02-17T21:37:32.509Z,44.90
2019-02-17T21:42:37.570Z,44.90
2019-02-17T21:47:42.247Z,44.90
2019-02-17T21:52:46.577Z,44.90
2019-02-17T21:57:50.734Z,44.90
2019-02-17T22:02:54.891Z,45.00
2019-02-17T22:07:59.161Z,45.00
2019-02-17T22:13:03.410Z,45.10
2019-02-17T22:18:07.951Z,45.10
2019-02-17T22:23:12.523Z,45.10
2019-02-17T22:28:18.188Z,45.20
2019-02-17T22:33:22.930Z,45.20
2019-02-17T22:38:27.324Z,45.30
2019-02-17T22:43:31.526Z,45.20
2019-02-17T22:48:35.696Z,45.30
2019-02-17T22:53:43.693Z,45.30
2019-02-17T22:58:46.231Z,45.30
2019-02-17T23:03:50.378Z,45.30
2019-02-17T23:08:54.925Z,45.50
2019-02-17T23:13:59.086Z,45.50
2019-02-17T23:19:04.314Z,45.60
2019-02-17T23:24:10.071Z,46.40
2019-02-17T23:29:15.780Z,45.90
2019-02-17T23:34:20.406Z,46.30
2019-02-17T23:39:26.097Z,46.30
2019-02-17T23:44:30.275Z,46.20
2019-02-17T23:49:34.437Z,46.20
2019-02-17T23:54:39.380Z,46.30
2019-02-17T23:59:44.565Z,46.20
